createdAt,value
2018-10-07T00:00:16.973Z,8.73
2018-10-07T00:02:45.649Z,8.40
2018-10-07T00:05:14.024Z,16.80
2018-10-07T00:07:43.080Z,539.23
2018-10-07T00:10:11.567Z,507.37
2018-10-07T00:12:40.488Z,455.17
2018-10-07T00:15:08.918Z,317.77
2018-10-07T00:17:37.613Z,234.60
2018-10-07T00:20:06.892Z,390.80
2018-10-07T00:22:35.380Z,490.67
2018-10-07T00:25:04.649Z,470.20
2018-10-07T00:27:33.207Z,292.60
2018-10-07T00:30:02.235Z,282.17
2018-10-07T00:32:30.788Z,181.63
2018-10-07T00:34:59.280Z,166.20
2018-10-07T00:37:27.930Z,147.93
2018-10-07T00:39:57.248Z,113.17
2018-10-07T00:42:25.646Z,99.00
2018-10-07T00:44:54.170Z,89.20
2018-10-07T00:47:22.583Z,80.47
2018-10-07T00:49:51.102Z,68.27
2018-10-07T00:52:19.669Z,48.03
2018-10-07T00:54:48.488Z,51.10
2018-10-07T00:57:17.037Z,38.67
2018-10-07T00:59:46.156Z,38.60
2018-10-07T01:02:14.769Z,30.60
2018-10-07T01:04:43.423Z,28.50
2018-10-07T01:07:11.969Z,27.03
2018-10-07T01:09:40.484Z,25.43
2018-10-07T01:12:08.869Z,20.07
2018-10-07T01:14:37.335Z,23.70
2018-10-07T01:17:06.395Z,22.90
2018-10-07T01:19:35.061Z,17.80
2018-10-07T01:22:03.599Z,16.80
2018-10-07T01:24:32.019Z,15.50
2018-10-07T01:27:00.522Z,15.03
2018-10-07T01:29:29.889Z,16.53
2018-10-07T01:31:59.358Z,12.70
2018-10-07T01:34:27.869Z,11.63
2018-10-07T01:36:56.520Z,12.80
2018-10-07T01:39:26.027Z,9.97
2018-10-07T01:41:54.869Z,11.37
2018-10-07T01:44:23.571Z,7.87
2018-10-07T01:46:52.238Z,8.03
2018-10-07T01:49:20.898Z,9.40
2018-10-07T01:51:49.333Z,6.93
2018-10-07T01:54:18.383Z,7.97
2018-10-07T01:56:46.812Z,9.33
2018-10-07T01:59:15.230Z,6.80
2018-10-07T02:01:43.699Z,8.13
2018-10-07T02:04:12.112Z,7.37
2018-10-07T02:06:40.580Z,7.03
2018-10-07T02:09:10.118Z,6.30
2018-10-07T02:11:39.576Z,3.80
2018-10-07T02:14:08.145Z,7.80
2018-10-07T02:16:36.702Z,5.10
2018-10-07T02:19:05.110Z,4.77
2018-10-07T02:21:34.108Z,7.67
2018-10-07T02:24:02.869Z,5.30
2018-10-07T02:26:31.392Z,4.53
2018-10-07T02:28:59.815Z,5.20
2018-10-07T02:31:28.352Z,4.03
2018-10-07T02:33:56.871Z,4.57
2018-10-07T02:36:26.156Z,6.67
2018-10-07T02:38:54.816Z,5.47
2018-10-07T02:41:23.260Z,3.97
2018-10-07T02:43:51.875Z,4.17
2018-10-07T02:46:20.399Z,3.33
2018-10-07T02:48:49.097Z,3.10
2018-10-07T02:51:17.639Z,4.83
2018-10-07T02:53:46.206Z,3.50
2018-10-07T02:56:14.624Z,3.97
2018-10-07T02:58:43.052Z,3.60
2018-10-07T03:01:11.512Z,8.00
2018-10-07T03:03:40.085Z,4.20
2018-10-07T03:06:08.847Z,4.87
2018-10-07T03:08:37.436Z,2.37
2018-10-07T03:11:06.182Z,5.23
2018-10-07T03:13:34.661Z,5.00
2018-10-07T03:16:03.311Z,3.83
2018-10-07T03:18:32.125Z,4.00
2018-10-07T03:21:00.699Z,3.43
2018-10-07T03:23:29.313Z,5.93
2018-10-07T03:25:58.168Z,5.40
2018-10-07T03:28:26.550Z,5.23
2018-10-07T03:30:55.081Z,2.97
2018-10-07T03:33:23.546Z,5.13
2018-10-07T03:35:52.361Z,3.30
2018-10-07T03:38:20.849Z,2.57
2018-10-07T03:40:49.316Z,5.73
2018-10-07T03:43:17.910Z,3.60
2018-10-07T03:45:47.148Z,5.73
2018-10-07T03:48:16.238Z,4.03
2018-10-07T03:50:44.673Z,5.90
2018-10-07T03:53:13.118Z,4.70
2018-10-07T03:55:42.169Z,4.33
2018-10-07T03:58:17.399Z,4.63
2018-10-07T04:00:46.075Z,3.60
2018-10-07T04:03:14.569Z,3.03
2018-10-07T04:05:43.194Z,3.53
2018-10-07T04:08:11.811Z,4.90
2018-10-07T04:10:40.406Z,5.80
2018-10-07T04:13:09.461Z,2.67
2018-10-07T04:15:38.078Z,4.17
2018-10-07T04:18:06.828Z,2.27
2018-10-07T04:20:35.607Z,4.13
2018-10-07T04:23:04.025Z,3.00
2018-10-07T04:25:32.444Z,4.53
2018-10-07T04:28:00.860Z,3.67
2018-10-07T04:30:29.982Z,2.57
2018-10-07T04:32:58.395Z,3.00
2018-10-07T04:35:26.797Z,3.33
2018-10-07T04:37:55.558Z,6.40
2018-10-07T04:40:24.080Z,3.07
2018-10-07T04:42:52.555Z,2.93
2018-10-07T04:45:20.989Z,4.50
2018-10-07T04:47:49.384Z,2.87
2018-10-07T04:50:17.815Z,3.10
2018-10-07T04:52:46.286Z,2.13
2018-10-07T04:55:14.930Z,3.07
2018-10-07T04:57:43.440Z,4.17
2018-10-07T05:00:11.929Z,2.93
2018-10-07T05:02:40.635Z,3.53
2018-10-07T05:05:09.271Z,3.53
2018-10-07T05:07:37.950Z,3.17
2018-10-07T05:10:50.952Z,4.73
2018-10-07T05:13:24.197Z,2.53
2018-10-07T05:15:57.324Z,4.97
2018-10-07T05:18:25.902Z,2.83
2018-10-07T05:20:55.167Z,3.70
2018-10-07T05:23:23.560Z,2.80
2018-10-07T05:25:52.031Z,3.93
2018-10-07T05:28:20.476Z,6.57
2018-10-07T05:30:48.929Z,4.07
2018-10-07T05:33:17.451Z,4.00
2018-10-07T05:35:46.735Z,5.17
2018-10-07T05:38:15.415Z,3.93
2018-10-07T05:40:44.562Z,5.33
2018-10-07T05:43:13.101Z,2.27
2018-10-07T05:45:41.719Z,3.40
2018-10-07T05:48:10.938Z,2.57
2018-10-07T05:50:39.429Z,3.73
2018-10-07T05:53:07.993Z,5.33
2018-10-07T05:55:36.802Z,3.63
2018-10-07T05:58:05.964Z,4.40
2018-10-07T06:00:35.871Z,3.57
2018-10-07T06:03:15.962Z,4.17
2018-10-07T06:05:44.941Z,4.67
2018-10-07T06:08:15.585Z,4.83
2018-10-07T06:10:44.634Z,2.33
2018-10-07T06:13:13.340Z,4.17
2018-10-07T06:15:43.306Z,3.30
2018-10-07T06:18:11.990Z,3.07
2018-10-07T06:20:41.139Z,4.70
2018-10-07T06:23:09.908Z,6.60
2018-10-07T06:25:39.109Z,2.43
2018-10-07T06:28:08.070Z,3.50
2018-10-07T06:30:36.677Z,4.13
2018-10-07T06:33:05.271Z,4.80
2018-10-07T06:35:33.724Z,5.30
2018-10-07T06:38:02.144Z,3.67
2018-10-07T06:40:30.849Z,4.23
2018-10-07T06:42:59.340Z,2.57
2018-10-07T06:45:28.183Z,3.67
2018-10-07T06:47:56.608Z,5.17
2018-10-07T06:50:25.128Z,3.60
2018-10-07T06:52:54.458Z,4.87
2018-10-07T06:55:22.897Z,5.27
2018-10-07T06:57:51.383Z,5.00
2018-10-07T07:00:20.041Z,6.23
2018-10-07T07:02:48.517Z,4.63
2018-10-07T07:05:17.166Z,4.00
2018-10-07T07:07:45.831Z,2.83
2018-10-07T07:10:14.366Z,3.93
2018-10-07T07:12:42.905Z,3.27
2018-10-07T07:15:15.754Z,4.40
2018-10-07T07:17:44.459Z,5.33
2018-10-07T07:20:13.175Z,5.83
2018-10-07T07:22:41.613Z,3.13
2018-10-07T07:25:10.203Z,4.90
2018-10-07T07:27:38.613Z,4.57
2018-10-07T07:30:07.242Z,6.17
2018-10-07T07:32:35.677Z,7.10
2018-10-07T07:35:04.785Z,7.50
2018-10-07T07:37:34.017Z,8.87
2018-10-07T07:40:02.433Z,4.87
2018-10-07T07:42:30.919Z,10.70
2018-10-07T07:44:59.464Z,8.57
2018-10-07T07:47:28.687Z,6.20
2018-10-07T07:49:57.357Z,5.40
2018-10-07T07:52:25.868Z,10.53
2018-10-07T07:54:54.433Z,5.27
2018-10-07T07:57:22.898Z,5.30
2018-10-07T07:59:51.473Z,3.43
2018-10-07T08:02:20.118Z,5.83
2018-10-07T08:04:48.617Z,5.83
2018-10-07T08:07:17.250Z,4.23
2018-10-07T08:09:45.757Z,4.07
2018-10-07T08:12:14.357Z,5.20
2018-10-07T08:14:42.777Z,3.37
2018-10-07T08:17:11.450Z,4.60
2018-10-07T08:19:39.891Z,3.80
2018-10-07T08:22:08.474Z,7.37
2018-10-07T08:24:37.009Z,4.83
2018-10-07T08:27:05.454Z,3.33
2018-10-07T08:29:34.193Z,5.53
2018-10-07T08:32:02.587Z,4.07
2018-10-07T08:34:31.233Z,5.73
2018-10-07T08:36:59.889Z,2.93
2018-10-07T08:39:28.347Z,5.87
2018-10-07T08:41:56.948Z,4.13
2018-10-07T08:44:27.035Z,5.40
2018-10-07T08:46:58.740Z,5.07
2018-10-07T08:49:28.328Z,3.00
2018-10-07T08:51:56.756Z,7.17
2018-10-07T08:54:25.455Z,3.77
2018-10-07T08:56:54.617Z,7.10
2018-10-07T08:59:23.012Z,3.23
2018-10-07T09:01:51.582Z,6.37
2018-10-07T09:04:20.008Z,4.47
2018-10-07T09:06:48.478Z,8.17
2018-10-07T09:09:17.530Z,7.40
2018-10-07T09:11:46.197Z,4.00
2018-10-07T09:14:14.677Z,4.17
2018-10-07T09:16:45.765Z,5.90
2018-10-07T09:19:17.010Z,6.83
2018-10-07T09:21:45.972Z,4.93
2018-10-07T09:24:14.586Z,3.97
